Time;durP1;ratioP1;P1;durP2;ratioP2;P2;SDS_P1;SDS_P2;PMS_P1;PMS_P2;Temp;Humidity;BMP_temperature;BMP_pressure;BME280_temperature;BME280_humidity;BME280_pressure;Samples;Min_cycle;Max_cycle;Signal;HPM_P1;HPM_P2
2022/08/09 03:58:17;;;;;;;9.48;6.00;;;;;;;20.78;67.02;100932.19;5606367;31;79332;-56
2022/08/09 04:01:22;;;;;;;8.27;5.68;;;;;;;20.78;67.02;100932.19;5583805;31;34081;-57
2022/08/09 04:04:26;;;;;;;9.63;5.25;;;;;;;20.36;67.85;100928.66;5584121;31;33891;-57
2022/08/09 04:07:40;;;;;;;7.60;5.40;;;;;;;20.29;67.84;100934.66;5584013;31;34215;-57
2022/08/09 04:10:54;;;;;;;6.97;5.12;;;;;;;20.29;67.65;100937.38;5583908;32;33335;-57
2022/08/09 04:14:02;;;;;;;7.18;5.12;;;;;;;20.38;67.45;100942.75;5584024;31;34131;-57
2022/08/09 04:17:24;;;;;;;9.77;5.37;;;;;;;20.47;66.86;100940.78;5583645;31;34271;-57
2022/08/09 04:20:30;;;;;;;6.37;5.32;;;;;;;20.44;67.02;100938.72;5583574;31;33663;-57
2022/08/09 04:23:34;;;;;;;5.80;5.20;;;;;;;20.52;66.75;100940.59;5584004;31;33689;-57
2022/08/09 04:26:36;;;;;;;7.40;5.75;;;;;;;20.52;66.74;100948.75;5583752;31;34254;-57
2022/08/09 04:29:39;;;;;;;9.18;5.37;;;;;;;20.51;66.63;100938.22;5583932;32;33594;-57
2022/08/09 04:32:52;;;;;;;7.85;6.37;;;;;;;20.50;66.83;100944.75;5583684;31;33899;-58
2022/08/09 04:35:55;;;;;;;9.93;6.50;;;;;;;20.46;67.20;100958.22;5583684;32;33425;-57
2022/08/09 04:39:01;;;;;;;9.70;6.60;;;;;;;20.52;67.45;100970.53;5583432;32;34180;-57
2022/08/09 04:42:05;;;;;;;8.80;6.57;;;;;;;20.52;67.53;100965.09;5583583;31;34276;-57
2022/08/09 04:45:10;;;;;;;9.52;6.62;;;;;;;20.54;67.57;100972.94;5583747;32;33740;-57
2022/08/09 04:48:14;;;;;;;9.38;5.93;;;;;;;20.44;67.94;100967.88;5564967;32;33626;-57
2022/08/09 04:51:16;;;;;;;10.95;6.60;;;;;;;20.46;67.74;100963.66;5564017;32;33683;-57
2022/08/09 04:54:22;;;;;;;9.77;6.80;;;;;;;20.46;67.73;100960.94;5563981;32;33619;-57
2022/08/09 04:57:27;;;;;;;11.10;6.25;;;;;;;20.51;67.47;100960.00;5563614;32;34033;-58
2022/08/09 05:00:49;;;;;;;9.73;5.87;;;;;;;20.58;67.25;100966.50;5563565;32;33892;-57
2022/08/09 05:03:51;;;;;;;12.90;5.95;;;;;;;20.58;67.28;100963.75;5563950;32;34219;-57
2022/08/09 05:07:00;;;;;;;9.55;5.60;;;;;;;20.67;66.95;100962.91;5562339;32;33649;-57
2022/08/09 05:10:02;;;;;;;12.75;5.95;;;;;;;20.73;66.56;100962.37;5550842;32;34320;-57
2022/08/09 05:13:05;;;;;;;14.15;6.03;;;;;;;20.88;65.78;100967.19;5549425;32;34349;-57
2022/08/09 05:16:11;;;;;;;12.50;5.70;;;;;;;20.77;66.47;100963.28;5550603;32;33622;-57
2022/08/09 05:19:20;;;;;;;7.65;5.12;;;;;;;20.94;66.04;100969.72;5550750;32;34375;-57
2022/08/09 05:22:27;;;;;;;10.05;5.57;;;;;;;21.16;65.46;100972.03;5550687;32;34501;-57
2022/08/09 05:25:49;;;;;;;31.50;6.65;;;;;;;21.20;65.16;100974.91;5550744;32;34337;-57
2022/08/09 05:28:52;;;;;;;9.02;4.97;;;;;;;21.20;65.63;100967.50;5550681;32;33770;-57
2022/08/09 05:31:58;;;;;;;7.87;5.30;;;;;;;21.29;65.55;100972.84;5550714;32;33507;-57
2022/08/09 05:35:01;;;;;;;7.70;5.70;;;;;;;21.58;64.46;100969.97;5550791;32;33711;-57
2022/08/09 05:38:03;;;;;;;9.38;5.30;;;;;;;21.62;64.83;100975.53;5550771;32;33695;-57
2022/08/09 05:41:06;;;;;;;7.25;5.28;;;;;;;21.76;64.31;100976.00;5550566;32;34234;-57
2022/08/09 05:44:15;;;;;;;11.12;6.12;;;;;;;22.02;63.27;100977.59;5550597;32;33713;-57
2022/08/09 05:47:24;;;;;;;12.80;5.55;;;;;;;22.15;62.91;100979.19;5550161;32;33660;-57
2022/08/09 05:50:31;;;;;;;11.93;5.70;;;;;;;22.37;62.26;100983.34;5550486;32;34407;-57
2022/08/09 05:53:53;;;;;;;10.40;6.53;;;;;;;22.47;62.47;100982.84;5550482;32;33647;-57
2022/08/09 05:56:59;;;;;;;7.57;5.90;;;;;;;22.39;62.00;100981.06;5550177;32;34389;-57
2022/08/09 06:00:04;;;;;;;6.57;5.60;;;;;;;22.43;62.71;100979.22;5550428;32;34231;-57
2022/08/09 06:03:12;;;;;;;9.77;5.47;;;;;;;22.52;62.52;100981.84;5550263;32;35150;-57
2022/08/09 06:06:22;;;;;;;10.27;6.32;;;;;;;22.71;61.92;100984.75;5550191;32;33636;-57
2022/08/09 06:09:25;;;;;;;9.85;5.22;;;;;;;22.86;62.04;100980.44;5550244;32;34190;-57
2022/08/09 06:12:48;;;;;;;11.65;5.70;;;;;;;22.97;61.59;100975.28;5550244;32;34494;-57
2022/08/09 06:16:04;;;;;;;17.05;5.78;;;;;;;23.11;60.96;100972.97;5550201;32;33741;-57
2022/08/09 06:19:06;;;;;;;11.60;5.50;;;;;;;23.28;61.00;100981.94;5548992;32;33576;-57
2022/08/09 06:22:08;;;;;;;8.40;5.50;;;;;;;23.46;59.82;100975.00;5550085;32;33792;-57
2022/08/09 06:25:17;;;;;;;8.50;5.78;;;;;;;23.67;58.88;100977.44;5550173;32;34276;-57
2022/08/09 06:28:22;;;;;;;17.00;6.12;;;;;;;23.67;58.28;100977.44;5550262;32;33676;-57
2022/08/09 06:31:34;;;;;;;9.85;5.22;;;;;;;23.54;58.86;100973.22;5549996;32;34393;-57
2022/08/09 06:34:56;;;;;;;12.18;5.50;;;;;;;23.65;58.41;100975.09;5549896;32;34235;-57
2022/08/09 06:37:59;;;;;;;10.55;5.60;;;;;;;23.87;55.02;100978.34;5550113;32;33686;-57
2022/08/09 06:41:07;;;;;;;18.90;5.50;;;;;;;23.90;54.59;100977.62;5550099;32;33669;-57
2022/08/09 06:44:20;;;;;;;8.48;5.20;;;;;;;24.01;54.33;100975.94;5550137;32;33620;-57
2022/08/09 06:47:22;;;;;;;7.57;5.40;;;;;;;24.10;53.54;100978.47;5549904;32;33575;-57
2022/08/09 06:50:25;;;;;;;11.15;5.87;;;;;;;24.11;53.71;100982.81;5550030;32;34327;-57
2022/08/09 06:53:32;;;;;;;7.45;5.37;;;;;;;24.11;53.28;100974.59;5549991;32;33780;-57
2022/08/09 06:56:40;;;;;;;7.93;5.05;;;;;;;24.13;53.70;100977.75;5549792;32;33630;-57
2022/08/09 06:59:47;;;;;;;9.13;5.35;;;;;;;24.28;54.46;100985.16;5550068;32;33676;-57
2022/08/09 07:03:09;;;;;;;9.77;5.05;;;;;;;24.25;52.38;100983.13;5549824;32;34210;-57
2022/08/09 07:06:12;;;;;;;13.38;5.12;;;;;;;24.28;52.03;100976.16;5549895;32;33722;-57
2022/08/09 07:09:15;;;;;;;14.23;5.90;;;;;;;24.27;52.68;100978.09;5549657;32;33706;-57
2022/08/09 07:12:37;;;;;;;13.88;5.95;;;;;;;24.42;52.30;100971.00;5549620;32;33675;-57
2022/08/09 07:15:43;;;;;;;15.15;5.50;;;;;;;24.49;52.23;100984.03;5549782;32;33635;-57
2022/08/09 07:19:05;;;;;;;20.23;6.05;;;;;;;24.69;51.87;100982.09;5549581;32;34242;-57
2022/08/09 07:22:09;;;;;;;10.38;5.97;;;;;;;24.69;50.94;100988.38;5549614;32;33627;-57
2022/08/09 07:25:12;;;;;;;27.00;6.60;;;;;;;24.69;51.17;100984.84;5549613;32;34300;-57
2022/08/09 07:28:17;;;;;;;11.83;5.67;;;;;;;24.74;51.97;100985.34;5549681;32;34335;-57
2022/08/09 07:31:20;;;;;;;10.32;5.43;;;;;;;24.92;51.47;100987.62;5549193;32;33765;-57
2022/08/09 07:34:25;;;;;;;11.40;5.32;;;;;;;24.93;50.54;100975.50;5549609;32;34417;-57
2022/08/09 07:37:27;;;;;;;10.25;5.60;;;;;;;24.97;50.66;100981.88;5549359;32;34795;-57
2022/08/09 07:40:30;;;;;;;9.38;5.32;;;;;;;24.99;50.48;100979.53;5549393;32;33566;-58
2022/08/09 07:43:52;;;;;;;25.48;6.20;;;;;;;25.07;51.08;100982.06;5549350;32;33677;-57
2022/08/09 07:46:57;;;;;;;;;;;;;;;25.15;50.89;100977.50;5549422;32;33699;-57
2022/08/09 07:49:59;;;;;;;13.35;5.45;;;;;;;25.16;50.67;100973.59;5549454;32;33851;-57
2022/08/09 07:53:10;;;;;;;8.43;4.90;;;;;;;25.19;50.54;100972.87;5549166;32;33721;-58
2022/08/09 07:56:12;;;;;;;46.15;7.43;;;;;;;25.31;50.19;100974.66;5548920;32;34264;-57
2022/08/09 07:59:29;;;;;;;11.05;4.90;;;;;;;25.36;50.21;100976.28;5548867;32;33985;-57
2022/08/09 08:02:47;;;;;;;10.15;5.25;;;;;;;25.45;50.46;100985.87;5548839;32;33878;-57
2022/08/09 08:05:49;;;;;;;7.80;5.40;;;;;;;25.51;50.55;100978.91;5548854;32;33748;-57
2022/08/09 08:08:59;;;;;;;9.52;5.43;;;;;;;25.33;48.47;100983.34;5548925;32;33728;-57
2022/08/09 08:12:09;;;;;;;8.85;5.60;;;;;;;25.19;49.59;100983.84;5548869;32;33514;-57
2022/08/09 08:15:30;;;;;;;10.80;5.25;;;;;;;25.07;49.81;100982.06;5548814;32;33305;-57
2022/08/09 08:18:38;;;;;;;12.32;5.70;;;;;;;25.13;50.24;100981.78;5548531;32;33674;-57
2022/08/09 08:21:44;;;;;;;14.30;5.43;;;;;;;25.12;50.07;100982.94;5548623;32;33688;-57
2022/08/09 08:24:56;;;;;;;7.50;4.85;;;;;;;25.13;50.32;100973.53;5548661;32;33764;-57
2022/08/09 08:27:58;;;;;;;27.52;5.87;;;;;;;25.21;50.27;100973.31;5548669;32;33633;-57
2022/08/09 08:31:01;;;;;;;8.07;5.25;;;;;;;25.37;49.93;100969.66;5548573;32;33385;-57
2022/08/09 08:34:16;;;;;;;16.98;5.50;;;;;;;25.40;49.16;100971.69;5548610;32;33741;-57
2022/08/09 08:37:26;;;;;;;11.10;5.90;;;;;;;25.33;48.81;100971.53;5548480;32;33600;-57
2022/08/09 08:40:51;;;;;;;8.60;5.40;;;;;;;25.41;50.21;100963.06;5548287;32;34277;-57
2022/08/09 08:43:54;;;;;;;9.38;5.20;;;;;;;25.54;49.09;100967.19;5548633;32;33721;-57
2022/08/09 08:47:03;;;;;;;9.13;4.80;;;;;;;25.57;48.51;100971.16;5550995;32;33804;-57
2022/08/09 08:50:16;;;;;;;6.50;4.97;;;;;;;25.59;48.33;100965.31;5551120;32;33610;-57
2022/08/09 08:53:20;;;;;;;10.30;5.35;;;;;;;25.68;47.15;100969.37;5550940;32;34189;-57
2022/08/09 08:56:24;;;;;;;6.72;4.70;;;;;;;25.77;47.71;100966.38;5550944;32;34347;-57
2022/08/09 08:59:29;;;;;;;9.95;5.30;;;;;;;25.67;47.10;100965.06;5550764;32;33802;-57
2022/08/09 09:02:49;;;;;;;8.88;4.97;;;;;;;25.78;47.26;100971.50;5550796;32;33636;-57
2022/08/09 09:05:55;;;;;;;9.13;4.47;;;;;;;25.77;47.71;100969.91;5550868;32;33606;-57
2022/08/09 09:09:07;;;;;;;64.12;7.28;;;;;;;25.85;47.25;100970.03;5550909;32;33680;-57
2022/08/09 09:12:31;;;;;;;17.08;5.18;;;;;;;25.86;46.95;100966.94;5550777;32;34342;-57
2022/08/09 09:15:37;;;;;;;20.52;6.97;;;;;;;25.97;48.01;100965.13;5550738;32;33637;-57
2022/08/09 09:18:41;;;;;;;7.25;4.65;;;;;;;26.04;47.13;100971.91;5550427;32;33679;-57
2022/08/09 09:22:01;;;;;;;7.18;4.45;;;;;;;26.05;46.93;100968.75;5550792;32;33744;-57
2022/08/09 09:25:06;;;;;;;11.70;4.32;;;;;;;25.99;47.18;100962.81;5550455;32;34352;-57
2022/08/09 09:28:33;;;;;;;7.90;4.12;;;;;;;26.01;46.82;100968.72;5550640;32;34412;-57
2022/08/09 09:32:02;;;;;;;22.90;5.03;;;;;;;26.04;46.95;100963.66;5550539;32;33604;-57
2022/08/09 09:35:24;;;;;;;8.32;4.57;;;;;;;26.05;46.09;100963.28;5550446;32;34330;-58
2022/08/09 09:38:56;;;;;;;9.98;4.43;;;;;;;26.11;45.88;100969.25;5550452;32;34347;-57
2022/08/09 09:42:13;;;;;;;18.37;6.37;;;;;;;26.09;46.07;100957.81;5550308;32;33779;-57
2022/08/09 09:45:28;;;;;;;7.07;4.65;;;;;;;26.21;47.57;100961.12;5550752;32;33707;-57
2022/08/09 09:49:07;;;;;;;8.05;4.18;;;;;;;26.33;46.01;100956.59;5550248;32;33741;-57
2022/08/09 09:52:11;;;;;;;5.53;3.87;;;;;;;26.39;46.25;100966.06;5560285;32;33767;-57
2022/08/09 09:55:49;;;;;;;4.87;4.30;;;;;;;26.33;44.48;100960.13;5569598;32;33335;-57
2022/08/09 09:59:06;;;;;;;7.57;4.30;;;;;;;26.40;45.31;100960.22;5569663;32;33742;-57
2022/08/09 10:02:10;;;;;;;6.87;3.72;;;;;;;26.42;44.85;100955.13;5569826;32;33599;-57
2022/08/09 10:05:13;;;;;;;4.97;3.90;;;;;;;26.47;44.36;100954.00;5569459;32;33725;-57
2022/08/09 10:08:23;;;;;;;9.07;4.40;;;;;;;26.50;44.74;100958.78;5569553;32;33766;-57
2022/08/09 10:11:32;;;;;;;15.77;4.85;;;;;;;26.64;44.79;100953.44;5569585;32;33730;-57
2022/08/09 10:15:11;;;;;;;6.93;4.07;;;;;;;26.58;45.08;100954.16;5569569;32;34350;-57
2022/08/09 10:18:33;;;;;;;8.25;4.30;;;;;;;26.65;44.22;100949.53;5569435;32;34208;-58
2022/08/09 10:21:47;;;;;;;6.60;3.92;;;;;;;26.65;44.80;100948.72;5569622;32;34345;-58
2022/08/09 10:24:51;;;;;;;5.97;3.70;;;;;;;26.76;44.52;100946.91;5569479;32;34335;-57
2022/08/09 10:27:53;;;;;;;6.20;3.78;;;;;;;26.81;43.39;100941.06;5569607;32;34279;-58
2022/08/09 10:30:59;;;;;;;7.18;3.95;;;;;;;26.85;43.24;100932.84;5569338;32;34458;-57
2022/08/09 10:34:22;;;;;;;5.18;3.58;;;;;;;26.90;43.92;100940.75;5569244;32;34215;-57
2022/08/09 10:37:37;;;;;;;5.62;3.85;;;;;;;26.94;42.86;100933.31;5569584;32;33680;-57
2022/08/09 10:40:43;;;;;;;6.10;3.40;;;;;;;27.03;42.18;100933.03;5569039;32;33912;-57
2022/08/09 10:43:51;;;;;;;6.40;3.37;;;;;;;26.98;43.12;100931.38;5569392;32;34398;-57
2022/08/09 10:47:25;;;;;;;7.32;3.65;;;;;;;26.99;42.11;100924.75;5568813;32;33768;-57
2022/08/09 10:51:08;;;;;;;;;;;;;;;27.07;42.36;100929.13;5569778;32;33749;-57
2022/08/09 10:54:12;;;;;;;4.95;3.17;;;;;;;27.08;41.57;100925.19;5569043;32;34719;-57
2022/08/09 10:57:15;;;;;;;4.55;3.30;;;;;;;27.15;41.52;100919.81;5569102;32;33629;-58
2022/08/09 11:00:52;;;;;;;6.68;3.90;;;;;;;27.22;41.13;100921.00;5569088;32;33644;-57
2022/08/09 11:04:21;;;;;;;7.37;3.83;;;;;;;27.33;41.12;100919.16;5516758;31;33645;-57
2022/08/09 11:07:33;;;;;;;5.22;3.37;;;;;;;27.40;41.32;100913.69;5548868;32;33674;-57
2022/08/09 11:10:55;;;;;;;5.57;4.40;;;;;;;27.43;40.60;100910.19;5549637;32;33895;-57
2022/08/09 11:14:31;;;;;;;5.47;3.83;;;;;;;27.48;41.12;100914.53;5549644;32;34449;-58
2022/08/09 11:17:43;;;;;;;3.67;3.20;;;;;;;27.40;40.63;100910.94;5549777;32;34341;-57
2022/08/09 11:20:46;;;;;;;7.22;3.55;;;;;;;27.44;38.90;100909.00;5549417;32;33445;-57
2022/08/09 11:23:58;;;;;;;7.25;3.95;;;;;;;27.31;39.85;100910.47;5548312;32;33641;-58
2022/08/09 11:27:01;;;;;;;5.85;3.90;;;;;;;27.25;41.04;100901.81;5548935;32;34373;-57
2022/08/09 11:30:10;;;;;;;5.93;3.87;;;;;;;27.32;41.22;100901.84;5549147;32;34329;-57
2022/08/09 11:33:47;;;;;;;6.07;3.80;;;;;;;27.50;41.35;100893.72;5549524;32;33687;-57
2022/08/09 11:36:54;;;;;;;4.90;3.80;;;;;;;27.55;40.67;100893.34;5549091;32;33927;-57
2022/08/09 11:40:02;;;;;;;;;;;;;;;27.46;40.36;100890.16;5549218;32;34298;-57
2022/08/09 11:43:05;;;;;;;6.37;4.30;;;;;;;27.50;39.79;100890.94;5548952;32;33975;-58
2022/08/09 11:46:08;;;;;;;8.40;4.45;;;;;;;27.56;41.51;100886.66;5548842;32;33685;-57
2022/08/09 11:49:11;;;;;;;7.55;4.25;;;;;;;27.67;41.74;100888.69;5549107;32;33786;-57
2022/08/09 11:52:30;;;;;;;9.77;4.65;;;;;;;27.77;40.92;100883.28;5548911;32;33256;-58
2022/08/09 11:56:17;;;;;;;5.57;4.57;;;;;;;27.86;42.65;100885.69;5548556;32;33660;-57
2022/08/09 11:59:26;;;;;;;9.05;4.70;;;;;;;27.77;41.70;100880.53;5548529;32;33625;-58
2022/08/09 12:02:37;;;;;;;6.40;4.60;;;;;;;27.79;42.47;100885.66;5567612;32;33646;-58
2022/08/09 12:05:42;;;;;;;5.40;4.40;;;;;;;27.93;40.93;100882.97;5568102;32;33981;-57
2022/08/09 12:08:51;;;;;;;8.43;4.37;;;;;;;27.79;41.50;100878.19;5568310;32;32379;-58
2022/08/09 12:11:56;;;;;;;5.30;4.03;;;;;;;27.73;41.44;100881.66;5568264;32;33719;-57
2022/08/09 12:15:19;;;;;;;10.02;4.12;;;;;;;27.78;42.11;100878.53;5568169;32;34324;-57
2022/08/09 12:18:44;;;;;;;6.32;4.75;;;;;;;27.69;41.68;100873.38;5569276;32;34528;-58
2022/08/09 12:22:00;;;;;;;7.80;4.35;;;;;;;27.65;42.32;100878.09;5570654;32;33598;-57
2022/08/09 12:25:12;;;;;;;6.28;4.50;;;;;;;27.72;41.38;100874.56;5570493;32;33533;-57
2022/08/09 12:28:19;;;;;;;14.30;5.28;;;;;;;27.71;41.35;100868.25;5570692;32;34409;-57
2022/08/09 12:31:42;;;;;;;10.82;4.80;;;;;;;27.69;41.67;100867.87;5570061;32;34360;-57
2022/08/09 12:35:05;;;;;;;6.07;4.53;;;;;;;27.66;42.33;100862.34;5570566;32;34363;-57
2022/08/09 12:38:24;;;;;;;7.70;4.33;;;;;;;27.74;41.26;100855.69;5570684;32;34403;-57
2022/08/09 12:41:39;;;;;;;8.25;4.68;;;;;;;27.76;41.93;100856.09;5570779;32;33371;-57
2022/08/09 12:44:42;;;;;;;11.12;4.78;;;;;;;27.74;41.54;100856.47;5570552;32;33972;-57
2022/08/09 12:47:53;;;;;;;7.70;4.85;;;;;;;27.73;41.57;100860.41;5570715;32;33893;-57
2022/08/09 12:50:57;;;;;;;6.97;4.43;;;;;;;27.67;42.37;100847.37;5570415;32;33604;-58
2022/08/09 12:54:02;;;;;;;7.87;4.63;;;;;;;27.66;42.36;100854.06;5570694;32;34466;-57
2022/08/09 12:57:04;;;;;;;5.35;4.30;;;;;;;27.64;42.37;100848.94;5570323;32;33766;-57
2022/08/09 13:00:21;;;;;;;6.45;4.20;;;;;;;27.71;42.20;100840.72;5570548;32;33545;-58
2022/08/09 13:03:30;;;;;;;6.35;4.60;;;;;;;27.69;41.86;100848.59;5570275;32;34553;-58
2022/08/09 13:06:52;;;;;;;5.57;4.72;;;;;;;27.66;42.19;100849.34;5570381;32;33704;-57
2022/08/09 13:10:03;;;;;;;14.20;4.57;;;;;;;27.65;42.80;100845.03;5569929;32;33810;-58
2022/08/09 13:13:05;;;;;;;6.97;4.35;;;;;;;27.73;41.75;100841.13;5570215;32;33713;-57
2022/08/09 13:16:15;;;;;;;34.08;6.30;;;;;;;27.59;42.90;100844.59;5570418;32;33660;-57
2022/08/09 13:19:27;;;;;;;22.95;5.18;;;;;;;27.55;42.67;100842.97;5569978;32;33598;-57
2022/08/09 13:22:51;;;;;;;8.40;5.10;;;;;;;27.56;42.59;100845.38;5570138;32;33692;-57
2022/08/09 13:26:30;;;;;;;7.45;5.03;;;;;;;27.57;42.87;100846.16;5570279;32;33768;-57
2022/08/09 13:29:37;;;;;;;;;;;;;;;27.57;41.54;100846.16;5570254;32;34351;-57
2022/08/09 13:32:59;;;;;;;13.62;5.18;;;;;;;27.62;41.57;100834.78;5570144;32;33985;-57
2022/08/09 13:36:02;;;;;;;13.55;5.22;;;;;;;27.46;42.27;100843.34;5570042;32;33738;-57
2022/08/09 13:39:25;;;;;;;7.20;4.70;;;;;;;27.54;43.01;100844.94;5569862;32;34268;-57
2022/08/09 13:42:47;;;;;;;9.63;4.80;;;;;;;27.58;42.42;100833.94;5569934;32;34428;-57
2022/08/09 13:45:49;;;;;;;11.70;5.45;;;;;;;27.55;42.60;100835.53;5569925;32;33633;-57
2022/08/09 13:49:12;;;;;;;6.70;4.62;;;;;;;27.56;42.15;100836.31;5569870;32;33793;-57
2022/08/09 13:52:22;;;;;;;7.90;4.80;;;;;;;27.65;41.12;100836.75;5570171;32;34291;-57
2022/08/09 13:55:26;;;;;;;19.80;5.15;;;;;;;27.58;42.69;100837.53;5569713;32;34386;-58
2022/08/09 13:58:31;;;;;;;10.18;4.68;;;;;;;27.67;43.47;100833.63;5569507;32;33789;-58
2022/08/09 14:01:33;;;;;;;9.90;5.00;;;;;;;27.65;42.42;100831.25;5569765;32;33865;-57
2022/08/09 14:04:55;;;;;;;9.70;4.32;;;;;;;27.82;40.65;100836.09;5569669;32;33468;-57
2022/08/09 14:08:05;;;;;;;14.50;5.72;;;;;;;27.85;40.60;100838.06;5569738;32;33728;-57
2022/08/09 14:11:08;;;;;;;6.35;4.62;;;;;;;27.79;41.69;100836.06;5569822;32;33683;-58
2022/08/09 14:14:17;;;;;;;15.18;4.95;;;;;;;27.74;41.72;100841.91;5569695;32;34427;-57
2022/08/09 14:17:28;;;;;;;8.77;4.82;;;;;;;27.74;41.79;100841.91;5569712;32;34034;-57
2022/08/09 14:20:51;;;;;;;8.00;4.47;;;;;;;27.82;41.63;100833.34;5569457;32;34287;-58
2022/08/09 14:23:54;;;;;;;7.25;4.50;;;;;;;27.93;41.19;100835.34;5569604;32;34340;-57
2022/08/09 14:26:59;;;;;;;9.67;4.37;;;;;;;27.90;41.06;100838.88;5555638;32;33879;-58
2022/08/09 14:30:03;;;;;;;5.75;4.55;;;;;;;27.91;41.03;100829.41;5555568;32;33881;-58
2022/08/09 14:33:25;;;;;;;7.50;4.37;;;;;;;27.93;40.50;100833.37;5569400;32;34276;-57
2022/08/09 14:36:33;;;;;;;8.67;4.87;;;;;;;27.96;41.01;100837.31;5569330;32;33761;-57
2022/08/09 14:39:43;;;;;;;10.95;4.47;;;;;;;27.87;40.80;100832.16;5568588;32;33636;-57
2022/08/09 14:42:49;;;;;;;7.15;4.43;;;;;;;27.84;41.47;100833.72;5568916;32;33726;-57
